createdAt,value
2018-07-20T00:01:29.695Z,23.19
2018-07-20T00:03:57.949Z,23.15
2018-07-20T00:06:26.168Z,23.08
2018-07-20T00:08:54.420Z,23.04
2018-07-20T00:11:22.646Z,23.02
2018-07-20T00:13:51.257Z,23.02
2018-07-20T00:16:19.954Z,22.99
2018-07-20T00:18:48.153Z,22.96
2018-07-20T00:21:16.364Z,22.92
2018-07-20T00:23:44.590Z,22.89
2018-07-20T00:26:12.824Z,22.83
2018-07-20T00:28:41.021Z,22.78
2018-07-20T00:31:09.225Z,22.74
2018-07-20T00:33:37.461Z,22.71
2018-07-20T00:36:05.701Z,22.71
2018-07-20T00:38:33.929Z,22.67
2018-07-20T00:41:02.141Z,22.66
2018-07-20T00:43:30.385Z,22.63
2018-07-20T00:45:58.588Z,22.63
2018-07-20T00:48:26.800Z,22.59
2018-07-20T00:50:55.021Z,22.58
2018-07-20T00:53:23.225Z,22.57
2018-07-20T00:55:51.448Z,22.58
2018-07-20T00:58:19.695Z,22.59
2018-07-20T01:00:47.941Z,22.60
2018-07-20T01:03:16.165Z,22.57
2018-07-20T01:05:44.369Z,22.53
2018-07-20T01:08:12.604Z,22.51
2018-07-20T01:10:40.828Z,22.50
2018-07-20T01:13:09.056Z,22.45
2018-07-20T01:15:37.300Z,22.39
2018-07-20T01:18:05.533Z,22.32
2018-07-20T01:20:33.749Z,22.28
2018-07-20T01:23:01.948Z,22.23
2018-07-20T01:25:30.172Z,22.18
2018-07-20T01:27:58.397Z,22.12
2018-07-20T01:30:26.674Z,22.10
2018-07-20T01:32:54.918Z,22.07
2018-07-20T01:35:23.133Z,22.02
2018-07-20T01:37:51.410Z,21.99
2018-07-20T01:40:19.675Z,21.97
2018-07-20T01:42:47.916Z,21.96
2018-07-20T01:45:16.137Z,21.97
2018-07-20T01:47:44.356Z,21.98
2018-07-20T01:50:12.597Z,21.95
2018-07-20T01:52:40.949Z,21.96
2018-07-20T01:55:09.172Z,21.94
2018-07-20T01:57:37.396Z,21.93
2018-07-20T02:00:05.681Z,21.95
2018-07-20T02:02:33.920Z,21.96
2018-07-20T02:05:02.152Z,21.94
2018-07-20T02:07:30.366Z,21.95
2018-07-20T02:09:58.568Z,21.95
2018-07-20T02:12:26.776Z,21.96
2018-07-20T02:14:55.065Z,21.97
2018-07-20T02:17:23.268Z,21.97
2018-07-20T02:19:51.516Z,21.95
2018-07-20T02:22:19.733Z,21.95
2018-07-20T02:24:47.936Z,21.95
2018-07-20T02:27:16.169Z,21.90
2018-07-20T02:29:44.422Z,21.87
2018-07-20T02:32:12.671Z,21.85
2018-07-20T02:34:40.885Z,21.85
2018-07-20T02:37:09.137Z,21.84
2018-07-20T02:39:37.353Z,21.82
2018-07-20T02:42:05.585Z,21.76
2018-07-20T02:44:33.810Z,21.76
2018-07-20T02:47:02.073Z,21.74
2018-07-20T02:49:30.305Z,21.68
2018-07-20T02:51:58.533Z,21.64
2018-07-20T02:54:26.753Z,21.59
2018-07-20T02:56:54.965Z,21.54
2018-07-20T02:59:23.194Z,21.51
2018-07-20T03:01:51.421Z,21.51
2018-07-20T03:04:19.618Z,21.50
2018-07-20T03:06:47.825Z,21.48
2018-07-20T03:09:16.046Z,21.47
2018-07-20T03:11:44.553Z,21.47
2018-07-20T03:14:12.777Z,21.50
2018-07-20T03:16:41.005Z,21.51
2018-07-20T03:19:09.516Z,21.51
2018-07-20T03:21:37.746Z,21.52
2018-07-20T03:24:06.041Z,21.52
2018-07-20T03:26:34.277Z,21.50
2018-07-20T03:29:02.555Z,21.48
2018-07-20T03:31:30.771Z,21.45
2018-07-20T03:33:58.997Z,21.43
2018-07-20T03:36:27.212Z,21.45
2018-07-20T03:38:55.442Z,21.45
2018-07-20T03:41:23.664Z,21.44
2018-07-20T03:43:51.897Z,21.41
2018-07-20T03:46:20.176Z,21.41
2018-07-20T03:48:48.408Z,21.40
2018-07-20T03:51:16.629Z,21.39
2018-07-20T03:53:44.857Z,21.35
2018-07-20T03:56:13.088Z,21.35
2018-07-20T03:58:41.320Z,21.34
2018-07-20T04:01:09.532Z,21.36
2018-07-20T04:03:37.732Z,21.36
2018-07-20T04:06:05.979Z,21.35
2018-07-20T04:08:34.201Z,21.35
2018-07-20T04:11:02.501Z,21.34
2018-07-20T04:13:30.748Z,21.32
2018-07-20T04:15:58.985Z,21.31
2018-07-20T04:18:27.228Z,21.31
2018-07-20T04:20:55.488Z,21.22
2018-07-20T04:23:23.712Z,21.11
2018-07-20T04:25:51.936Z,20.98
2018-07-20T04:28:20.169Z,20.89
2018-07-20T04:30:48.388Z,20.82
2018-07-20T04:33:16.604Z,20.79
2018-07-20T04:35:44.836Z,20.76
2018-07-20T04:38:13.052Z,20.73
2018-07-20T04:40:41.288Z,20.68
2018-07-20T04:43:09.568Z,20.64
2018-07-20T04:45:37.809Z,20.63
2018-07-20T04:48:06.200Z,20.58
2018-07-20T04:50:34.526Z,20.56
2018-07-20T04:53:02.741Z,20.57
2018-07-20T04:55:30.957Z,20.60
2018-07-20T04:57:59.200Z,20.62
2018-07-20T05:00:27.417Z,20.64
2018-07-20T05:02:55.625Z,20.65
2018-07-20T05:05:23.828Z,20.65
2018-07-20T05:07:52.053Z,20.66
2018-07-20T05:10:20.268Z,20.64
2018-07-20T05:12:48.469Z,20.60
2018-07-20T05:15:16.686Z,20.58
2018-07-20T05:17:44.909Z,20.55
2018-07-20T05:20:13.144Z,20.55
2018-07-20T05:22:41.348Z,20.55
2018-07-20T05:25:10.430Z,20.55
2018-07-20T05:27:38.634Z,20.57
2018-07-20T05:30:07.773Z,20.55
2018-07-20T05:32:35.984Z,20.55
2018-07-20T05:35:04.205Z,20.55
2018-07-20T05:37:32.443Z,20.55
2018-07-20T05:40:00.660Z,20.55
2018-07-20T05:42:28.896Z,20.55
2018-07-20T05:44:57.115Z,20.55
2018-07-20T05:47:25.382Z,20.56
2018-07-20T05:49:53.592Z,20.57
2018-07-20T05:52:21.836Z,20.58
2018-07-20T05:54:50.150Z,20.60
2018-07-20T05:57:18.381Z,20.61
2018-07-20T05:59:46.829Z,20.64
2018-07-20T06:02:15.345Z,20.68
2018-07-20T06:04:43.613Z,20.71
2018-07-20T06:07:11.965Z,20.71
2018-07-20T06:09:40.180Z,20.72
2018-07-20T06:12:08.577Z,20.76
2018-07-20T06:14:36.785Z,20.78
2018-07-20T06:17:05.034Z,20.79
2018-07-20T06:19:33.340Z,20.80
2018-07-20T06:22:01.569Z,20.75
2018-07-20T06:24:29.824Z,20.76
2018-07-20T06:26:58.077Z,20.76
2018-07-20T06:29:26.313Z,20.83
2018-07-20T06:31:54.531Z,20.82
2018-07-20T06:34:22.792Z,20.83
2018-07-20T06:36:51.005Z,20.87
2018-07-20T06:39:19.252Z,20.92
2018-07-20T06:41:47.469Z,21.01
2018-07-20T06:44:15.756Z,21.08
2018-07-20T06:46:43.985Z,21.13
2018-07-20T06:49:12.192Z,21.14
2018-07-20T06:51:40.450Z,21.19
2018-07-20T06:54:08.688Z,21.16
2018-07-20T06:56:36.945Z,21.18
2018-07-20T06:59:05.196Z,21.22
2018-07-20T07:01:33.666Z,21.28
2018-07-20T07:04:01.913Z,21.35
2018-07-20T07:06:30.144Z,21.35
2018-07-20T07:08:58.616Z,21.38
2018-07-20T07:11:26.852Z,21.41
2018-07-20T07:13:55.105Z,21.45
2018-07-20T07:16:23.346Z,21.49
2018-07-20T07:18:51.572Z,21.55
2018-07-20T07:21:19.818Z,21.53
2018-07-20T07:23:48.053Z,21.52
2018-07-20T07:26:16.261Z,21.54
2018-07-20T07:28:44.502Z,21.52
2018-07-20T07:31:12.706Z,21.54
2018-07-20T07:33:40.932Z,21.55
2018-07-20T07:36:09.172Z,21.58
2018-07-20T07:38:37.399Z,21.66
2018-07-20T07:41:05.620Z,21.73
2018-07-20T07:43:33.844Z,21.73
2018-07-20T07:46:02.118Z,21.74
2018-07-20T07:48:30.345Z,21.81
2018-07-20T07:50:58.669Z,21.87
2018-07-20T07:53:26.944Z,21.93
2018-07-20T07:55:55.176Z,21.93
2018-07-20T07:58:23.416Z,21.92
2018-07-20T08:00:51.624Z,21.92
2018-07-20T08:03:19.940Z,21.94
2018-07-20T08:05:48.153Z,21.96
2018-07-20T08:08:16.376Z,21.98
2018-07-20T08:10:44.637Z,21.98
2018-07-20T08:13:12.856Z,22.03
2018-07-20T08:15:41.120Z,22.12
2018-07-20T08:18:09.318Z,22.16
2018-07-20T08:20:37.536Z,22.18
2018-07-20T08:23:05.809Z,22.18
2018-07-20T08:25:34.069Z,22.23
2018-07-20T08:28:02.309Z,22.29
2018-07-20T08:30:30.725Z,22.32
2018-07-20T08:32:58.957Z,22.38
2018-07-20T08:35:27.244Z,22.44
2018-07-20T08:37:55.700Z,22.50
2018-07-20T08:40:23.929Z,22.55
2018-07-20T08:42:52.504Z,22.56
2018-07-20T08:45:20.760Z,22.57
2018-07-20T08:47:48.976Z,22.60
2018-07-20T08:50:17.227Z,22.63
2018-07-20T08:52:45.552Z,22.62
2018-07-20T08:55:13.864Z,22.63
2018-07-20T08:57:42.106Z,22.63
2018-07-20T09:00:10.330Z,22.67
2018-07-20T09:02:38.592Z,22.71
2018-07-20T09:05:06.828Z,22.74
2018-07-20T09:07:35.144Z,22.78
2018-07-20T09:10:03.398Z,22.84
2018-07-20T09:12:31.685Z,22.89
2018-07-20T09:15:00.018Z,22.94
2018-07-20T09:17:28.344Z,22.97
2018-07-20T09:19:56.565Z,23.02
2018-07-20T09:22:24.852Z,23.08
2018-07-20T09:24:53.081Z,23.11
2018-07-20T09:27:21.346Z,23.13
2018-07-20T09:29:49.569Z,23.17
2018-07-20T09:32:17.805Z,23.22
2018-07-20T09:34:46.029Z,23.28
2018-07-20T09:37:14.241Z,23.30
2018-07-20T09:39:42.478Z,23.33
2018-07-20T09:42:10.925Z,23.38
2018-07-20T09:44:39.220Z,23.45
2018-07-20T09:47:07.444Z,23.49
2018-07-20T09:49:35.813Z,23.56
2018-07-20T09:52:04.037Z,23.63
2018-07-20T09:54:32.273Z,23.70
2018-07-20T09:57:00.493Z,23.73
2018-07-20T09:59:28.744Z,23.81
2018-07-20T10:01:57.065Z,23.88
2018-07-20T10:04:25.292Z,23.90
2018-07-20T10:06:53.536Z,23.93
2018-07-20T10:09:21.788Z,23.96
2018-07-20T10:11:50.049Z,23.97
2018-07-20T10:14:18.266Z,24.03
2018-07-20T10:16:46.480Z,24.09
2018-07-20T10:19:14.783Z,24.14
2018-07-20T10:21:42.993Z,24.20
2018-07-20T10:24:11.252Z,24.26
2018-07-20T10:26:39.564Z,24.31
2018-07-20T10:29:07.805Z,24.39
2018-07-20T10:31:36.035Z,24.44
2018-07-20T10:34:04.253Z,24.50
2018-07-20T10:36:32.502Z,24.58
2018-07-20T10:39:00.741Z,24.65
2018-07-20T10:41:28.952Z,24.78
2018-07-20T10:43:57.185Z,24.89
2018-07-20T10:46:25.422Z,25.05
2018-07-20T10:48:53.657Z,25.20
2018-07-20T10:51:21.888Z,25.44
2018-07-20T10:53:50.105Z,25.72
2018-07-20T10:56:18.329Z,26.01
2018-07-20T10:58:46.541Z,26.29
2018-07-20T11:01:14.812Z,26.56
2018-07-20T11:03:43.012Z,26.80
2018-07-20T11:06:11.261Z,26.96
2018-07-20T11:08:39.469Z,27.12
2018-07-20T11:11:08.236Z,27.22
2018-07-20T11:13:36.570Z,27.35
2018-07-20T11:16:04.805Z,27.46
2018-07-20T11:18:33.033Z,27.58
2018-07-20T11:21:01.345Z,27.61
2018-07-20T11:23:29.556Z,27.76
2018-07-20T11:25:57.789Z,27.83
2018-07-20T11:28:26.001Z,27.96
2018-07-20T11:30:54.256Z,28.09
2018-07-20T11:33:22.568Z,28.15
2018-07-20T11:35:50.810Z,28.23
2018-07-20T11:38:19.020Z,28.33
2018-07-20T11:40:47.285Z,28.42
2018-07-20T11:43:15.518Z,28.50
2018-07-20T11:45:43.748Z,28.58
2018-07-20T11:48:11.957Z,28.66
2018-07-20T11:50:40.168Z,28.74
2018-07-20T11:53:08.404Z,28.77
2018-07-20T11:55:36.627Z,28.81
2018-07-20T11:58:04.880Z,28.86
2018-07-20T12:00:33.112Z,28.89
2018-07-20T12:03:01.354Z,28.94
2018-07-20T12:05:29.568Z,29.03
2018-07-20T12:07:57.800Z,29.10
2018-07-20T12:10:26.017Z,29.06
2018-07-20T12:12:54.244Z,29.10
2018-07-20T12:15:22.468Z,29.10
2018-07-20T12:17:50.700Z,29.10
2018-07-20T12:20:18.909Z,29.08
2018-07-20T12:22:47.170Z,29.07
2018-07-20T12:25:15.391Z,29.03
2018-07-20T12:27:43.764Z,29.09
2018-07-20T12:30:12.001Z,29.15
2018-07-20T12:32:40.203Z,29.26
2018-07-20T12:35:08.453Z,29.31
2018-07-20T12:37:36.664Z,29.46
2018-07-20T12:40:04.987Z,29.70
2018-07-20T12:42:33.304Z,29.80
2018-07-20T12:45:01.458Z,29.91
2018-07-20T12:47:29.685Z,29.88
2018-07-20T12:49:57.901Z,29.94
2018-07-20T12:52:26.121Z,29.88
2018-07-20T12:54:54.365Z,29.87
2018-07-20T12:57:22.597Z,29.82
2018-07-20T12:59:50.829Z,29.78
2018-07-20T13:02:19.077Z,29.81
2018-07-20T13:04:47.307Z,29.86
2018-07-20T13:07:15.551Z,30.06
2018-07-20T13:09:43.797Z,30.12
2018-07-20T13:12:12.030Z,30.20
2018-07-20T13:14:40.244Z,30.16
2018-07-20T13:17:08.494Z,30.10
2018-07-20T13:19:36.697Z,30.12
2018-07-20T13:22:04.933Z,30.17
2018-07-20T13:24:33.161Z,30.19
2018-07-20T13:27:01.641Z,30.31
2018-07-20T13:29:29.852Z,30.46
2018-07-20T13:31:58.081Z,30.47
2018-07-20T13:34:26.300Z,30.50
2018-07-20T13:36:54.537Z,30.44
2018-07-20T13:39:22.804Z,30.43
2018-07-20T13:41:51.057Z,30.57
2018-07-20T13:44:19.276Z,30.66
2018-07-20T13:46:47.521Z,30.78
2018-07-20T13:49:15.749Z,30.93
2018-07-20T13:51:43.972Z,30.94
2018-07-20T13:54:12.217Z,30.96
2018-07-20T13:56:40.436Z,31.12
2018-07-20T13:59:08.672Z,31.18
2018-07-20T14:01:36.908Z,31.26
2018-07-20T14:04:05.183Z,31.25
2018-07-20T14:06:33.388Z,31.27
2018-07-20T14:09:01.614Z,31.35
2018-07-20T14:11:29.850Z,31.51
2018-07-20T14:13:58.055Z,31.66
2018-07-20T14:16:26.286Z,31.67
2018-07-20T14:18:54.528Z,31.62
2018-07-20T14:21:22.738Z,31.59
2018-07-20T14:23:50.961Z,31.53
2018-07-20T14:26:19.227Z,31.50
2018-07-20T14:28:47.408Z,31.35
2018-07-20T14:31:15.636Z,31.20
2018-07-20T14:33:43.862Z,31.12
2018-07-20T14:36:12.124Z,31.11
2018-07-20T14:38:40.350Z,31.14
2018-07-20T14:41:08.577Z,31.14
2018-07-20T14:43:36.797Z,31.05
2018-07-20T14:46:05.149Z,31.01
2018-07-20T14:48:33.358Z,30.99
2018-07-20T14:51:01.579Z,30.96
2018-07-20T14:53:29.801Z,30.93
2018-07-20T14:55:58.046Z,30.89
2018-07-20T14:58:26.293Z,30.89
2018-07-20T15:00:54.532Z,30.91
2018-07-20T15:03:22.741Z,30.92
2018-07-20T15:05:50.944Z,30.90
2018-07-20T15:08:19.172Z,30.92
2018-07-20T15:10:47.384Z,30.99
2018-07-20T15:13:15.681Z,31.10
2018-07-20T15:15:43.900Z,31.14
2018-07-20T15:18:12.117Z,31.16
2018-07-20T15:20:40.346Z,31.22
2018-07-20T15:23:08.612Z,31.35
2018-07-20T15:25:37.052Z,31.44
2018-07-20T15:28:05.373Z,31.48
2018-07-20T15:30:33.632Z,31.43
2018-07-20T15:33:01.856Z,31.28
2018-07-20T15:35:30.068Z,31.15
2018-07-20T15:37:58.278Z,31.08
2018-07-20T15:40:26.537Z,31.01
2018-07-20T15:42:54.801Z,30.95
2018-07-20T15:45:23.049Z,30.94
2018-07-20T15:47:51.301Z,30.97
2018-07-20T15:50:19.516Z,30.84
2018-07-20T15:53:35.719Z,30.63
2018-07-20T15:55:16.003Z,30.44
2018-07-20T15:57:44.248Z,30.25
2018-07-20T16:00:12.501Z,30.06
2018-07-20T16:02:40.749Z,29.89
2018-07-20T16:05:08.985Z,29.76
2018-07-20T16:07:37.237Z,29.64
2018-07-20T16:10:05.496Z,29.53
2018-07-20T16:12:33.729Z,29.44
2018-07-20T16:15:01.967Z,29.38
2018-07-20T16:17:30.186Z,29.34
2018-07-20T16:19:58.425Z,29.38
2018-07-20T16:22:26.709Z,29.46
2018-07-20T16:24:54.940Z,29.56
2018-07-20T16:27:23.157Z,29.65
2018-07-20T16:29:51.380Z,29.71
2018-07-20T16:32:19.649Z,29.77
2018-07-20T16:34:47.893Z,29.81
2018-07-20T16:37:16.136Z,29.96
2018-07-20T16:39:44.348Z,30.16
2018-07-20T16:42:12.592Z,30.44
2018-07-20T16:44:40.832Z,30.62
2018-07-20T16:47:09.090Z,30.61
2018-07-20T16:49:37.315Z,30.55
2018-07-20T16:52:05.540Z,30.45
2018-07-20T16:54:33.753Z,30.41
2018-07-20T16:57:01.964Z,30.50
2018-07-20T16:59:30.200Z,30.58
2018-07-20T17:01:58.412Z,30.44
2018-07-20T17:04:26.649Z,30.14
2018-07-20T17:06:54.877Z,29.85
2018-07-20T17:09:23.100Z,29.63
2018-07-20T17:11:51.319Z,29.45
2018-07-20T17:14:19.545Z,29.28
2018-07-20T17:16:47.756Z,29.10
2018-07-20T17:19:15.995Z,28.97
2018-07-20T17:21:44.244Z,28.86
2018-07-20T17:24:12.477Z,28.77
2018-07-20T17:26:40.704Z,28.64
2018-07-20T17:29:08.941Z,28.56
2018-07-20T17:31:37.157Z,28.50
2018-07-20T17:34:05.429Z,28.45
2018-07-20T17:36:33.660Z,28.40
2018-07-20T17:39:02.050Z,28.34
2018-07-20T17:41:30.273Z,28.32
2018-07-20T17:43:58.469Z,28.27
2018-07-20T17:46:26.734Z,28.23
2018-07-20T17:48:54.946Z,28.17
2018-07-20T17:51:23.164Z,28.14
2018-07-20T17:53:51.408Z,28.09
2018-07-20T17:56:19.664Z,28.06
2018-07-20T17:58:47.845Z,28.01
2018-07-20T18:01:16.253Z,27.96
2018-07-20T18:03:44.518Z,27.91
2018-07-20T18:06:12.845Z,27.87
2018-07-20T18:08:41.048Z,27.83
2018-07-20T18:11:09.277Z,27.82
2018-07-20T18:13:37.509Z,27.77
2018-07-20T18:16:05.860Z,27.73
2018-07-20T18:18:34.070Z,27.69
2018-07-20T18:21:02.305Z,27.64
2018-07-20T18:23:30.549Z,27.59
2018-07-20T18:25:58.765Z,27.60
2018-07-20T18:28:26.970Z,27.58
2018-07-20T18:30:55.193Z,27.54
2018-07-20T18:33:23.420Z,27.52
2018-07-20T18:35:51.660Z,27.47
2018-07-20T18:38:19.884Z,27.42
2018-07-20T18:40:48.137Z,27.37
2018-07-20T18:43:16.389Z,27.33
2018-07-20T18:45:44.625Z,27.28
2018-07-20T18:48:12.827Z,27.19
2018-07-20T18:50:41.060Z,27.10
2018-07-20T18:53:09.263Z,27.01
2018-07-20T18:55:37.481Z,26.87
2018-07-20T18:58:05.726Z,26.74
2018-07-20T19:00:33.945Z,26.63
2018-07-20T19:03:02.169Z,26.50
2018-07-20T19:05:30.385Z,26.44
2018-07-20T19:07:58.622Z,26.35
2018-07-20T19:10:26.829Z,26.28
2018-07-20T19:12:55.041Z,26.24
2018-07-20T19:15:23.341Z,26.13
2018-07-20T19:17:51.604Z,26.12
2018-07-20T19:20:19.842Z,26.08
2018-07-20T19:22:48.073Z,26.02
2018-07-20T19:25:16.333Z,25.92
2018-07-20T19:27:44.637Z,25.92
2018-07-20T19:30:12.909Z,25.89
2018-07-20T19:32:41.171Z,25.86
2018-07-20T19:35:09.343Z,25.83
2018-07-20T19:37:37.565Z,25.81
2018-07-20T19:40:05.787Z,25.79
2018-07-20T19:42:34.018Z,25.78
2018-07-20T19:45:02.245Z,25.75
2018-07-20T19:47:30.546Z,25.76
2018-07-20T19:49:58.761Z,25.75
2018-07-20T19:52:27.002Z,25.76
2018-07-20T19:54:55.253Z,25.80
2018-07-20T19:57:23.488Z,25.82
2018-07-20T19:59:51.709Z,25.86
2018-07-20T20:02:19.921Z,25.87
2018-07-20T20:04:48.165Z,25.90
2018-07-20T20:07:16.377Z,25.90
2018-07-20T20:09:44.825Z,25.88
2018-07-20T20:12:13.525Z,25.89
2018-07-20T20:14:41.780Z,25.91
2018-07-20T20:17:10.016Z,25.91
2018-07-20T20:19:38.252Z,25.90
2018-07-20T20:22:06.773Z,25.86
2018-07-20T20:24:35.000Z,25.88
2018-07-20T20:27:03.320Z,25.87
2018-07-20T20:29:31.581Z,25.85
2018-07-20T20:31:59.810Z,25.83
2018-07-20T20:34:28.025Z,25.81
2018-07-20T20:36:56.254Z,25.80
2018-07-20T20:39:24.465Z,25.74
2018-07-20T20:41:52.670Z,25.77
2018-07-20T20:44:20.903Z,25.72
2018-07-20T20:46:49.166Z,25.66
2018-07-20T20:49:17.416Z,25.62
2018-07-20T20:51:45.697Z,25.55
2018-07-20T20:54:13.952Z,25.50
2018-07-20T20:56:42.164Z,25.47
2018-07-20T20:59:10.450Z,25.45
2018-07-20T21:01:38.652Z,25.39
2018-07-20T21:04:06.872Z,25.41
2018-07-20T21:06:35.104Z,25.41
2018-07-20T21:09:03.456Z,25.45
2018-07-20T21:11:31.677Z,25.45
2018-07-20T21:13:59.918Z,25.49
2018-07-20T21:16:28.132Z,25.51
2018-07-20T21:18:56.376Z,25.55
2018-07-20T21:21:24.685Z,25.56
2018-07-20T21:23:52.907Z,25.58
2018-07-20T21:26:21.117Z,25.60
2018-07-20T21:28:49.344Z,25.61
2018-07-20T21:31:17.589Z,25.61
2018-07-20T21:33:45.815Z,25.61
2018-07-20T21:36:14.049Z,25.61
2018-07-20T21:38:42.284Z,25.61
2018-07-20T21:41:10.532Z,25.57
2018-07-20T21:43:38.805Z,25.55
2018-07-20T21:46:07.138Z,25.49
2018-07-20T21:48:35.462Z,25.53
2018-07-20T21:51:03.628Z,25.50
2018-07-20T21:53:31.869Z,25.48
2018-07-20T21:56:00.128Z,25.46
2018-07-20T21:58:28.344Z,25.46
2018-07-20T22:00:56.582Z,25.45
2018-07-20T22:03:24.869Z,25.43
2018-07-20T22:05:53.100Z,25.40
2018-07-20T22:08:21.343Z,25.40
2018-07-20T22:10:49.569Z,25.37
2018-07-20T22:13:17.789Z,25.36
2018-07-20T22:15:46.004Z,25.35
2018-07-20T22:18:14.217Z,25.33
2018-07-20T22:20:42.513Z,25.32
2018-07-20T22:23:10.788Z,25.32
2018-07-20T22:25:39.007Z,25.28
2018-07-20T22:28:07.669Z,25.27
2018-07-20T22:30:35.889Z,25.25
2018-07-20T22:33:04.117Z,25.24
2018-07-20T22:35:32.360Z,25.20
2018-07-20T22:38:00.604Z,25.20
2018-07-20T22:40:28.825Z,25.17
2018-07-20T22:42:57.045Z,25.15
2018-07-20T22:45:25.296Z,25.15
2018-07-20T22:47:53.507Z,25.13
2018-07-20T22:50:21.745Z,25.12
2018-07-20T22:52:49.978Z,25.12
2018-07-20T22:55:18.213Z,25.11
2018-07-20T22:57:46.472Z,25.10
2018-07-20T23:00:14.733Z,25.10
2018-07-20T23:02:43.008Z,25.09
2018-07-20T23:05:11.221Z,25.05
2018-07-20T23:07:39.432Z,24.99
2018-07-20T23:10:07.688Z,24.92
2018-07-20T23:12:35.900Z,24.84
2018-07-20T23:15:04.688Z,24.79
2018-07-20T23:17:32.925Z,24.74
2018-07-20T23:20:01.133Z,24.68
2018-07-20T23:22:29.416Z,24.62
2018-07-20T23:24:57.936Z,24.61
2018-07-20T23:27:26.181Z,24.59
2018-07-20T23:29:54.384Z,24.58
2018-07-20T23:32:22.640Z,24.56
2018-07-20T23:34:50.865Z,24.52
2018-07-20T23:37:19.084Z,24.48
2018-07-20T23:39:47.381Z,24.46
2018-07-20T23:42:15.616Z,24.44
2018-07-20T23:44:43.845Z,24.43
2018-07-20T23:47:12.109Z,24.42
2018-07-20T23:49:40.341Z,24.40
2018-07-20T23:52:08.549Z,24.40
2018-07-20T23:54:36.797Z,24.38
2018-07-20T23:57:05.021Z,24.38
2018-07-20T23:59:33.283Z,24.37
